Terminal Aerodrome Forecast
Issued by NWS

Home | Current Version | Previous Version | Text Only | Print | Product List | Glossary On
Versions: 1 2 3 4 5 6 7 8 9 10 11 12 13 14 15 16 17 18
000
FTUS42 KMLB 032340
TAFTIX
TAF
KTIX 032340Z 0400/0424 12012KT P6SM FEW020
     FM040200 13003KT P6SM SKC
     FM040900 00000KT 3SM BR SCT003 OVC010
      TEMPO 0409/0412 BKN003
     FM041400 16011KT P6SM SCT020 SCT035=

USA.gov is the U.S. government's official web portal to all federal, state and local government web resources and services.